Time;durP1;ratioP1;P1;durP2;ratioP2;P2;SDS_P1;SDS_P2;PMS_P1;PMS_P2;Temp;Humidity;BMP_temperature;BMP_pressure;BME280_temperature;BME280_humidity;BME280_pressure;Samples;Min_cycle;Max_cycle;Signal;HPM_P1;HPM_P2
2023/03/13 00:00:16;;;;;;;16.00;2.97;;;9.80;99.90;;;;;;4950408;28;20379;-79
2023/03/13 00:02:44;;;;;;;23.80;5.80;;;9.90;99.90;;;;;;4960307;28;20046;-79
2023/03/13 00:05:10;;;;;;;11.15;3.63;;;10.00;99.90;;;;;;4957319;28;20483;-80
2023/03/13 00:07:36;;;;;;;18.38;3.00;;;9.80;99.90;;;;;;4951149;28;20026;-80
2023/03/13 00:10:02;;;;;;;17.02;4.60;;;9.90;99.90;;;;;;4957378;28;20496;-79
2023/03/13 00:12:27;;;;;;;12.98;2.42;;;9.80;99.90;;;;;;4952337;28;20030;-79
2023/03/13 00:14:53;;;;;;;15.48;2.70;;;9.90;99.90;;;;;;4953962;28;20038;-79
2023/03/13 00:17:18;;;;;;;14.02;2.88;;;9.90;99.90;;;;;;4955019;28;20031;-79
2023/03/13 00:19:44;;;;;;;20.27;4.43;;;9.90;99.90;;;;;;4974310;28;20068;-79
2023/03/13 00:22:09;;;;;;;9.77;2.78;;;9.90;99.90;;;;;;4958116;28;20030;-78
2023/03/13 00:24:35;;;;;;;20.63;3.65;;;9.80;99.90;;;;;;4953810;28;20029;-79
2023/03/13 00:27:03;;;;;;;13.43;2.88;;;9.80;99.90;;;;;;4952500;28;20038;-78
2023/03/13 00:29:29;;;;;;;14.88;2.28;;;9.80;99.90;;;;;;4971946;28;20033;-80
2023/03/13 00:31:55;;;;;;;11.75;2.13;;;9.80;99.90;;;;;;4954259;28;20509;-80
2023/03/13 00:34:21;;;;;;;15.48;2.42;;;9.80;99.90;;;;;;4949467;28;20065;-80
2023/03/13 00:36:47;;;;;;;20.50;3.47;;;9.70;99.90;;;;;;4972424;28;20042;-80
2023/03/13 00:39:12;;;;;;;17.92;2.60;;;9.70;99.90;;;;;;4984811;28;20371;-80
2023/03/13 00:41:38;;;;;;;13.40;2.60;;;9.70;99.90;;;;;;4949858;28;20471;-80
2023/03/13 00:44:03;;;;;;;22.60;4.30;;;9.70;99.90;;;;;;4956709;28;20022;-80
2023/03/13 00:46:29;;;;;;;15.88;3.35;;;9.70;99.90;;;;;;4967803;28;20033;-80
2023/03/13 00:48:55;;;;;;;15.05;2.67;;;9.70;99.90;;;;;;4952002;28;20445;-79
2023/03/13 00:51:22;;;;;;;14.00;3.15;;;9.70;99.90;;;;;;4956638;28;20057;-80
2023/03/13 00:53:48;;;;;;;22.63;3.65;;;9.60;99.90;;;;;;4974898;28;20052;-80
2023/03/13 00:56:14;;;;;;;13.90;2.90;;;9.50;99.90;;;;;;4973826;28;20038;-80
2023/03/13 00:58:41;;;;;;;12.38;3.33;;;9.60;99.90;;;;;;4954168;28;20050;-79
2023/03/13 01:01:11;;;;;;;14.48;3.75;;;9.60;99.90;;;;;;4953255;28;20034;-78
2023/03/13 01:03:36;;;;;;;19.73;4.72;;;9.60;99.90;;;;;;4968445;28;20034;-78
2023/03/13 01:06:03;;;;;;;21.48;2.90;;;9.50;99.90;;;;;;4954018;28;20479;-78
2023/03/13 01:08:28;;;;;;;15.73;3.13;;;9.50;99.90;;;;;;4952063;28;20033;-78
2023/03/13 01:10:58;;;;;;;11.63;2.05;;;9.50;99.90;;;;;;4953150;28;20044;-78
2023/03/13 01:13:24;;;;;;;16.95;2.78;;;9.40;99.90;;;;;;4956712;28;20039;-78
2023/03/13 01:15:50;;;;;;;14.70;2.38;;;9.40;99.90;;;;;;4960426;28;20046;-78
2023/03/13 01:18:15;;;;;;;15.07;2.05;;;9.40;99.90;;;;;;4959071;28;20054;-78
2023/03/13 01:20:41;;;;;;;17.75;2.35;;;9.40;99.90;;;;;;4976078;28;20686;-78
2023/03/13 01:23:07;;;;;;;17.88;3.47;;;9.30;99.90;;;;;;4969429;28;20030;-78
2023/03/13 01:25:35;;;;;;;17.27;2.53;;;9.40;99.90;;;;;;4957933;28;20034;-78
2023/03/13 01:28:01;;;;;;;13.18;2.55;;;9.40;99.90;;;;;;4962111;28;20080;-78
2023/03/13 01:30:27;;;;;;;16.80;3.25;;;9.30;99.90;;;;;;4960270;28;20485;-79
2023/03/13 01:32:53;;;;;;;15.27;3.38;;;9.30;99.90;;;;;;4956283;28;20064;-78
2023/03/13 01:35:18;;;;;;;9.32;2.28;;;9.50;99.90;;;;;;4968500;28;20049;-77
2023/03/13 01:37:44;;;;;;;15.15;3.10;;;9.30;99.90;;;;;;4956704;28;20045;-77
2023/03/13 01:40:10;;;;;;;9.23;2.20;;;9.30;99.90;;;;;;4973709;28;20441;-78
2023/03/13 01:42:52;;;;;;;17.85;3.05;;;9.30;99.90;;;;;;4962194;28;20088;-79
2023/03/13 01:45:48;;;;;;;15.63;3.25;;;9.30;99.90;;;;;;4988123;28;20034;-79
2023/03/13 01:48:14;;;;;;;22.08;3.60;;;9.30;99.90;;;;;;5002993;28;20049;-79
2023/03/13 01:50:39;;;;;;;16.70;2.90;;;9.30;99.90;;;;;;4958201;28;20038;-79
2023/03/13 01:53:05;;;;;;;11.52;2.42;;;9.30;99.90;;;;;;4958974;28;20037;-78
2023/03/13 01:55:30;;;;;;;20.55;2.55;;;9.30;99.90;;;;;;4953689;28;20034;-77
2023/03/13 01:57:56;;;;;;;17.38;3.00;;;9.30;99.90;;;;;;4970083;28;20043;-77
2023/03/13 02:00:23;;;;;;;14.65;2.72;;;9.30;99.90;;;;;;4969766;28;20490;-78
2023/03/13 02:02:51;;;;;;;8.70;2.00;;;9.30;99.90;;;;;;4975550;28;20034;-78
2023/03/13 02:05:20;;;;;;;8.10;1.42;;;9.30;99.90;;;;;;4958194;28;20080;-78
2023/03/13 02:07:55;;;;;;;6.63;1.75;;;9.20;99.90;;;;;;4958516;28;20030;-77
2023/03/13 02:10:21;;;;;;;9.98;1.98;;;9.40;99.90;;;;;;4977376;28;20057;-76
2023/03/13 02:12:47;;;;;;;15.75;2.10;;;9.30;99.90;;;;;;4960413;28;20471;-76
2023/03/13 02:15:17;;;;;;;15.10;2.60;;;9.30;99.90;;;;;;4953279;28;20110;-77
2023/03/13 02:17:43;;;;;;;8.65;1.75;;;9.30;99.90;;;;;;4971306;28;20033;-77
2023/03/13 02:20:10;;;;;;;14.77;2.38;;;9.30;99.90;;;;;;4957337;28;20034;-77
2023/03/13 02:22:39;;;;;;;15.25;2.78;;;9.30;99.90;;;;;;4970309;28;20171;-76
2023/03/13 02:25:22;;;;;;;15.27;2.35;;;9.30;99.90;;;;;;4988636;28;20034;-77
2023/03/13 02:27:51;;;;;;;13.82;3.13;;;9.30;99.90;;;;;;4983322;28;20084;-76
2023/03/13 02:30:16;;;;;;;11.48;2.75;;;9.30;99.90;;;;;;4955314;28;20034;-76
2023/03/13 02:32:42;;;;;;;15.07;3.28;;;9.30;99.90;;;;;;4980190;28;20034;-77
2023/03/13 02:35:10;;;;;;;13.98;2.70;;;9.40;99.90;;;;;;4959528;28;20030;-77
2023/03/13 02:37:35;;;;;;;15.45;2.35;;;9.30;99.90;;;;;;4972388;28;20029;-77
2023/03/13 02:40:04;;;;;;;25.25;4.53;;;9.30;99.90;;;;;;4961700;28;20377;-78
2023/03/13 02:42:29;;;;;;;13.82;2.72;;;9.40;99.90;;;;;;4955314;28;20731;-78
2023/03/13 02:44:55;;;;;;;15.32;2.28;;;9.30;99.90;;;;;;4952404;28;20113;-77
2023/03/13 02:47:21;;;;;;;8.57;1.88;;;9.40;99.90;;;;;;4958098;28;20026;-76
2023/03/13 02:49:47;;;;;;;9.82;1.63;;;9.40;99.90;;;;;;4966267;28;20509;-76
2023/03/13 02:52:18;;;;;;;6.82;1.75;;;9.40;99.90;;;;;;4959652;28;20034;-77
2023/03/13 02:54:46;;;;;;;10.35;1.83;;;9.30;99.90;;;;;;4963027;28;20039;-77
2023/03/13 02:57:11;;;;;;;9.95;2.25;;;9.40;99.90;;;;;;4977331;28;20404;-77
2023/03/13 02:59:37;;;;;;;5.45;1.45;;;9.40;99.90;;;;;;4961307;28;20049;-77
2023/03/13 03:02:03;;;;;;;7.63;2.15;;;9.50;99.90;;;;;;4948362;28;20038;-77
2023/03/13 03:04:28;;;;;;;13.00;3.85;;;9.40;99.90;;;;;;4972291;28;20133;-78
2023/03/13 03:06:54;;;;;;;6.63;1.45;;;9.40;99.90;;;;;;4957846;28;20140;-77
2023/03/13 03:09:20;;;;;;;12.35;2.55;;;9.40;99.90;;;;;;4971872;28;20497;-77
2023/03/13 03:11:45;;;;;;;6.65;2.45;;;9.50;99.90;;;;;;4961976;28;20042;-77
2023/03/13 03:14:11;;;;;;;11.32;1.70;;;9.60;99.90;;;;;;4954757;28;20029;-77
2023/03/13 03:16:37;;;;;;;11.10;2.58;;;9.50;99.90;;;;;;4966161;28;20069;-77
2023/03/13 03:19:03;;;;;;;7.80;1.98;;;9.50;99.90;;;;;;4959246;28;20045;-77
2023/03/13 03:21:28;;;;;;;14.10;1.80;;;9.50;99.90;;;;;;4956716;28;20036;-78
2023/03/13 03:23:54;;;;;;;5.25;1.60;;;9.50;99.90;;;;;;4952290;28;20042;-78
2023/03/13 03:26:19;;;;;;;7.43;2.35;;;9.50;99.90;;;;;;4981660;28;20107;-78
2023/03/13 03:28:45;;;;;;;5.85;1.35;;;9.60;99.90;;;;;;4955323;28;20042;-77
2023/03/13 03:31:12;;;;;;;5.43;1.20;;;9.70;99.90;;;;;;4957803;28;20038;-77
2023/03/13 03:33:37;;;;;;;8.75;1.58;;;9.50;99.90;;;;;;4969807;28;20056;-80
2023/03/13 03:36:07;;;;;;;5.40;1.00;;;9.60;99.90;;;;;;4951504;28;20022;-81
2023/03/13 03:38:33;;;;;;;5.30;2.00;;;9.60;99.90;;;;;;4970987;28;20113;-80
2023/03/13 03:40:58;;;;;;;3.88;1.60;;;9.60;99.90;;;;;;4971085;28;20118;-81
2023/03/13 03:43:24;;;;;;;6.82;1.63;;;9.60;99.90;;;;;;4958621;28;20029;-80
2023/03/13 03:45:50;;;;;;;8.27;1.35;;;9.70;99.90;;;;;;4981832;28;20617;-80
2023/03/13 03:48:15;;;;;;;6.93;1.10;;;9.80;99.90;;;;;;4965958;28;20025;-81
2023/03/13 03:50:41;;;;;;;10.52;1.70;;;9.70;99.90;;;;;;4972252;28;20215;-80
2023/03/13 03:53:07;;;;;;;5.40;1.63;;;9.70;99.90;;;;;;4973091;28;20490;-81
2023/03/13 03:55:32;;;;;;;2.83;0.68;;;9.70;99.90;;;;;;4954932;28;20449;-80
2023/03/13 03:57:58;;;;;;;9.23;1.40;;;9.70;99.90;;;;;;4967049;28;20030;-80
2023/03/13 04:00:23;;;;;;;2.85;0.73;;;9.80;99.90;;;;;;4958853;28;20026;-80
2023/03/13 04:02:49;;;;;;;10.00;1.10;;;9.80;99.90;;;;;;4962456;28;20033;-80
2023/03/13 04:05:15;;;;;;;3.05;0.88;;;9.80;99.90;;;;;;4984755;28;20034;-81
2023/03/13 04:07:40;;;;;;;6.35;1.13;;;9.80;99.90;;;;;;4951770;28;20429;-80
2023/03/13 04:10:06;;;;;;;1.08;0.65;;;9.80;99.90;;;;;;4983580;28;20034;-81
2023/03/13 04:12:32;;;;;;;2.35;0.90;;;9.80;99.90;;;;;;4967979;28;20141;-81
2023/03/13 04:14:57;;;;;;;3.22;1.17;;;9.90;99.90;;;;;;4967704;28;20025;-81
2023/03/13 04:17:23;;;;;;;8.07;1.17;;;9.90;99.90;;;;;;4955728;28;20121;-80
2023/03/13 04:19:49;;;;;;;4.20;0.98;;;9.90;99.90;;;;;;4956746;28;20022;-81
2023/03/13 04:22:14;;;;;;;3.33;1.15;;;9.90;99.90;;;;;;4952152;28;20041;-81
2023/03/13 04:24:40;;;;;;;7.60;1.17;;;9.90;99.90;;;;;;4970506;28;20030;-80
2023/03/13 04:27:05;;;;;;;4.00;1.17;;;9.90;99.90;;;;;;4974343;28;20026;-81
2023/03/13 04:29:32;;;;;;;2.67;1.00;;;9.90;99.90;;;;;;4955244;28;20121;-82
2023/03/13 04:31:57;;;;;;;4.63;0.80;;;9.90;99.90;;;;;;4971218;28;20044;-81
2023/03/13 04:34:23;;;;;;;7.93;0.95;;;9.90;99.90;;;;;;4955728;28;20401;-81
2023/03/13 04:36:49;;;;;;;2.13;0.88;;;9.90;99.90;;;;;;4977105;28;20386;-81
2023/03/13 04:39:14;;;;;;;0.80;0.47;;;9.90;99.90;;;;;;4967753;28;20030;-82
2023/03/13 04:41:40;;;;;;;1.95;0.70;;;10.00;99.90;;;;;;4972516;28;20406;-80
2023/03/13 04:44:05;;;;;;;4.13;0.70;;;10.00;99.90;;;;;;4976873;28;20077;-81
2023/03/13 04:46:31;;;;;;;0.90;0.52;;;10.00;99.90;;;;;;4960776;28;20030;-81
2023/03/13 04:48:56;;;;;;;8.77;1.10;;;10.00;99.90;;;;;;4965181;28;20030;-81
2023/03/13 04:51:22;;;;;;;1.08;0.65;;;10.00;99.90;;;;;;4988718;28;20482;-81
2023/03/13 04:53:48;;;;;;;4.40;0.90;;;10.00;99.90;;;;;;4968360;28;20046;-81
2023/03/13 04:56:22;;;;;;;3.97;0.90;;;10.00;99.90;;;;;;4957083;28;20038;-80
2023/03/13 04:58:48;;;;;;;2.28;0.70;;;10.00;99.90;;;;;;4966960;28;20041;-81
2023/03/13 05:01:14;;;;;;;4.43;0.80;;;10.10;99.90;;;;;;4974645;28;20052;-81
2023/03/13 05:03:39;;;;;;;3.63;1.13;;;10.10;99.90;;;;;;4969343;28;20096;-81
2023/03/13 05:06:05;;;;;;;0.95;0.28;;;10.10;99.90;;;;;;4959592;28;20038;-80
2023/03/13 05:08:31;;;;;;;3.47;1.00;;;10.10;99.90;;;;;;4972509;28;20135;-80
2023/03/13 05:10:56;;;;;;;3.15;0.70;;;10.10;99.90;;;;;;4953979;28;20042;-80
2023/03/13 05:13:22;;;;;;;2.35;0.55;;;10.10;99.90;;;;;;4959063;28;20026;-80
2023/03/13 05:15:47;;;;;;;1.88;0.60;;;10.20;99.90;;;;;;4972991;28;20391;-81
2023/03/13 05:18:13;;;;;;;2.60;0.52;;;10.20;99.90;;;;;;4950296;28;20027;-80
2023/03/13 05:20:38;;;;;;;1.45;0.57;;;10.20;99.90;;;;;;4952647;28;20034;-81
2023/03/13 05:23:04;;;;;;;2.70;0.40;;;10.20;99.90;;;;;;4953341;28;20026;-80
2023/03/13 05:25:29;;;;;;;1.95;0.70;;;10.20;99.90;;;;;;4963468;28;20037;-81
2023/03/13 05:27:55;;;;;;;3.80;1.15;;;10.30;99.90;;;;;;4966191;28;20060;-79
2023/03/13 05:30:21;;;;;;;1.60;0.75;;;10.30;99.90;;;;;;4962105;28;20508;-80
2023/03/13 05:32:46;;;;;;;2.65;0.90;;;10.30;99.90;;;;;;4957698;28;20058;-80
2023/03/13 05:35:12;;;;;;;3.38;0.82;;;10.30;99.90;;;;;;4964869;28;20035;-80
2023/03/13 05:37:38;;;;;;;3.58;0.70;;;10.30;99.90;;;;;;4975018;28;20025;-80
2023/03/13 05:40:04;;;;;;;1.80;1.05;;;10.30;99.90;;;;;;4963001;28;20029;-81
2023/03/13 05:42:29;;;;;;;1.95;1.05;;;10.40;99.90;;;;;;4955603;28;20049;-81
2023/03/13 05:44:55;;;;;;;3.88;2.72;;;10.40;99.90;;;;;;4956647;28;20034;-81
2023/03/13 05:47:21;;;;;;;1.35;0.73;;;10.40;99.90;;;;;;4956085;28;20394;-81
2023/03/13 05:49:46;;;;;;;1.45;0.90;;;10.40;99.90;;;;;;4955632;28;20038;-81
2023/03/13 05:52:12;;;;;;;1.45;0.60;;;10.40;99.90;;;;;;4951511;28;20027;-80
2023/03/13 05:54:37;;;;;;;4.53;1.40;;;10.50;99.90;;;;;;4986922;28;20042;-81
2023/03/13 05:57:03;;;;;;;1.83;1.35;;;10.60;99.90;;;;;;4965167;28;20038;-80
2023/03/13 05:59:28;;;;;;;3.97;1.70;;;10.60;99.90;;;;;;4965352;28;20054;-81
2023/03/13 06:01:54;;;;;;;2.80;1.20;;;10.60;99.90;;;;;;4968927;28;20034;-81
2023/03/13 06:04:20;;;;;;;1.27;0.68;;;10.70;99.90;;;;;;4994974;28;20117;-80
2023/03/13 06:06:46;;;;;;;1.13;0.95;;;10.70;99.90;;;;;;4960710;28;20042;-81
2023/03/13 06:09:11;;;;;;;2.67;1.42;;;10.80;99.90;;;;;;4971259;28;20030;-81
2023/03/13 06:11:37;;;;;;;4.15;1.35;;;10.80;99.90;;;;;;4976030;28;20037;-81
2023/03/13 06:14:02;;;;;;;2.15;1.00;;;10.90;99.90;;;;;;4993233;28;20057;-81
2023/03/13 06:16:28;;;;;;;3.05;1.83;;;10.90;99.90;;;;;;4958115;28;20462;-82
2023/03/13 06:18:54;;;;;;;1.80;1.63;;;10.90;99.90;;;;;;4957609;28;20489;-81
2023/03/13 06:21:19;;;;;;;4.85;1.63;;;11.00;99.90;;;;;;4974078;28;20041;-81
2023/03/13 06:23:45;;;;;;;2.45;0.85;;;11.00;99.90;;;;;;4988533;28;20125;-80
2023/03/13 06:26:10;;;;;;;4.45;1.45;;;11.10;99.90;;;;;;4957585;28;20109;-81
2023/03/13 06:28:36;;;;;;;7.22;1.60;;;11.10;99.90;;;;;;4974359;28;20038;-81
2023/03/13 06:31:02;;;;;;;1.73;1.45;;;11.20;99.90;;;;;;4973175;28;20049;-81
2023/03/13 06:33:29;;;;;;;1.77;0.73;;;11.20;99.90;;;;;;4956498;28;20038;-82
2023/03/13 06:35:55;;;;;;;1.17;1.08;;;11.20;99.90;;;;;;4982348;28;20057;-82
2023/03/13 06:38:20;;;;;;;2.88;1.33;;;11.20;99.90;;;;;;4964357;28;20060;-81
2023/03/13 06:40:46;;;;;;;3.78;1.13;;;11.30;99.90;;;;;;4969560;28;20030;-81
2023/03/13 06:43:12;;;;;;;2.83;0.63;;;11.30;99.90;;;;;;4962383;28;20038;-81
2023/03/13 06:45:37;;;;;;;0.88;0.77;;;11.40;99.90;;;;;;4972719;28;20117;-81
2023/03/13 06:48:03;;;;;;;3.10;1.10;;;11.40;99.90;;;;;;4987087;28;20033;-81
2023/03/13 06:50:29;;;;;;;1.60;1.08;;;11.40;99.90;;;;;;4956359;28;20034;-80
2023/03/13 06:52:56;;;;;;;3.13;1.25;;;11.50;99.90;;;;;;4958046;28;20038;-81
2023/03/13 06:55:22;;;;;;;1.90;0.98;;;11.50;99.90;;;;;;4960544;28;20044;-82
2023/03/13 06:57:51;;;;;;;2.25;1.00;;;11.50;99.90;;;;;;4954702;28;20026;-81
2023/03/13 07:00:17;;;;;;;1.80;1.63;;;11.60;99.90;;;;;;4972398;28;20433;-81
2023/03/13 07:02:43;;;;;;;1.23;0.60;;;11.60;99.90;;;;;;4968098;28;20061;-80
2023/03/13 07:05:09;;;;;;;1.60;0.80;;;11.60;99.90;;;;;;4969299;28;20042;-82
2023/03/13 07:07:34;;;;;;;4.50;1.83;;;11.70;99.90;;;;;;4955887;28;20029;-82
2023/03/13 07:10:00;;;;;;;1.23;0.77;;;11.70;99.90;;;;;;4990909;28;20049;-81
2023/03/13 07:12:25;;;;;;;1.83;0.98;;;11.70;99.90;;;;;;4956170;28;20037;-82
2023/03/13 07:14:51;;;;;;;1.88;0.60;;;11.80;99.90;;;;;;4951308;28;20367;-89
2023/03/13 07:17:16;;;;;;;1.20;0.75;;;11.80;99.90;;;;;;4973421;28;20486;-84
2023/03/13 07:19:42;;;;;;;2.25;0.60;;;11.80;99.90;;;;;;4976232;28;20370;-83
2023/03/13 07:22:07;;;;;;;1.08;0.68;;;12.00;99.90;;;;;;4984136;28;20689;-84
2023/03/13 07:24:33;;;;;;;2.55;1.52;;;12.00;99.90;;;;;;4955249;28;20121;-83
2023/03/13 07:26:59;;;;;;;2.13;1.30;;;12.00;99.90;;;;;;4979512;28;20034;-83
2023/03/13 07:29:24;;;;;;;3.75;1.88;;;12.00;99.90;;;;;;4957577;28;20531;-83
2023/03/13 07:31:53;;;;;;;2.25;1.30;;;12.10;99.90;;;;;;4970344;28;20112;-83
2023/03/13 07:34:19;;;;;;;4.85;1.60;;;12.00;99.90;;;;;;4969728;28;20493;-82
2023/03/13 07:36:44;;;;;;;2.13;1.00;;;12.10;99.90;;;;;;4951286;28;20034;-82
2023/03/13 07:39:10;;;;;;;2.40;1.40;;;12.10;99.90;;;;;;4951063;28;20029;-84
2023/03/13 07:41:35;;;;;;;5.00;1.92;;;12.20;99.90;;;;;;4959644;28;20577;-82
2023/03/13 07:44:01;;;;;;;2.55;1.02;;;12.30;99.90;;;;;;4957645;28;20081;-83
2023/03/13 07:46:27;;;;;;;4.75;1.70;;;12.30;99.90;;;;;;4973063;28;20034;-83
2023/03/13 07:48:54;;;;;;;2.92;1.63;;;12.30;99.90;;;;;;4951919;28;20064;-83
2023/03/13 07:51:21;;;;;;;5.00;1.40;;;12.30;99.90;;;;;;4961868;28;20030;-82
2023/03/13 07:53:47;;;;;;;3.72;1.58;;;12.40;99.90;;;;;;4958269;28;20378;-81
2023/03/13 07:56:14;;;;;;;4.32;1.40;;;12.70;99.90;;;;;;4952222;28;20805;-83
2023/03/13 07:58:40;;;;;;;4.38;1.75;;;12.40;99.90;;;;;;4966930;28;20407;-82
2023/03/13 08:01:22;;;;;;;1.60;1.08;;;12.40;99.90;;;;;;4963686;28;20030;-82
2023/03/13 08:03:49;;;;;;;1.48;0.98;;;12.50;99.90;;;;;;4958492;28;20050;-83
2023/03/13 08:06:16;;;;;;;3.30;1.40;;;12.50;99.90;;;;;;4956944;28;20161;-82
2023/03/13 08:08:42;;;;;;;9.13;1.25;;;12.50;99.90;;;;;;4960461;28;20077;-83
2023/03/13 08:11:18;;;;;;;4.82;0.95;;;12.50;99.90;;;;;;4948222;28;20058;-81
2023/03/13 08:13:44;;;;;;;2.80;1.65;;;12.50;99.90;;;;;;4956957;28;20042;-83
2023/03/13 08:16:14;;;;;;;2.55;1.23;;;12.50;99.90;;;;;;4956567;28;20038;-84
2023/03/13 08:18:42;;;;;;;2.13;0.75;;;12.60;99.90;;;;;;4957212;28;20035;-83
2023/03/13 08:21:10;;;;;;;6.80;1.08;;;12.60;99.90;;;;;;4961648;28;20518;-82
2023/03/13 08:23:36;;;;;;;5.63;1.70;;;12.60;99.90;;;;;;4957091;28;20030;-83
2023/03/13 08:26:22;;;;;;;3.03;1.05;;;12.60;99.90;;;;;;4955948;28;20030;-81
2023/03/13 08:28:53;;;;;;;4.72;0.95;;;12.60;99.90;;;;;;4973184;28;20514;-85
2023/03/13 08:31:20;;;;;;;3.85;1.17;;;12.60;99.90;;;;;;4955217;28;20030;-85
2023/03/13 08:33:47;;;;;;;2.83;1.10;;;12.70;99.90;;;;;;4972327;28;20054;-83
2023/03/13 08:36:16;;;;;;;4.72;1.80;;;12.60;99.90;;;;;;4954912;28;20037;-83
2023/03/13 08:38:43;;;;;;;2.35;1.27;;;12.70;99.90;;;;;;4967283;28;20038;-83
2023/03/13 08:41:09;;;;;;;6.05;2.80;;;12.70;99.90;;;;;;4953290;28;20026;-82
2023/03/13 08:43:34;;;;;;;4.68;1.88;;;12.70;99.90;;;;;;4966527;28;20045;-82
2023/03/13 08:46:00;;;;;;;5.57;2.35;;;12.80;99.90;;;;;;4958274;28;20088;-81
2023/03/13 08:48:25;;;;;;;1.52;1.02;;;12.80;99.90;;;;;;4951163;28;20026;-81
2023/03/13 08:51:05;;;;;;;2.55;1.10;;;12.80;99.90;;;;;;4951422;28;20061;-80
2023/03/13 08:53:31;;;;;;;3.47;1.10;;;12.80;99.90;;;;;;4952261;28;20018;-79
2023/03/13 08:55:56;;;;;;;4.25;1.23;;;12.80;99.90;;;;;;4958112;28;20029;-83
2023/03/13 08:58:22;;;;;;;6.75;2.45;;;12.90;99.90;;;;;;4959154;28;20030;-81
2023/03/13 09:00:48;;;;;;;8.27;1.73;;;12.90;99.90;;;;;;4955119;28;20035;-82
2023/03/13 09:03:13;;;;;;;4.82;2.30;;;13.00;99.90;;;;;;4950529;28;20049;-82
2023/03/13 09:05:39;;;;;;;3.67;1.58;;;12.90;99.90;;;;;;4978487;28;20037;-82
2023/03/13 09:08:05;;;;;;;2.40;1.15;;;12.90;99.90;;;;;;4969930;28;20048;-81
2023/03/13 09:10:34;;;;;;;3.33;1.30;;;12.90;99.90;;;;;;4956445;28;20030;-85
2023/03/13 09:13:00;;;;;;;1.90;1.38;;;13.00;99.90;;;;;;4968404;28;20030;-82
2023/03/13 09:15:26;;;;;;;3.08;1.67;;;13.00;99.90;;;;;;4957023;28;20030;-83
2023/03/13 09:17:51;;;;;;;7.70;2.03;;;13.10;99.90;;;;;;4953111;28;20072;-83
2023/03/13 09:20:20;;;;;;;5.40;1.73;;;13.20;99.90;;;;;;4954184;28;20046;-83
2023/03/13 09:22:46;;;;;;;3.53;1.38;;;13.30;99.90;;;;;;4951016;28;20391;-83
2023/03/13 09:25:12;;;;;;;10.93;1.77;;;13.40;99.90;;;;;;4956060;28;20026;-82
2023/03/13 09:27:38;;;;;;;1.05;0.75;;;13.50;99.90;;;;;;4962001;28;20509;-85
2023/03/13 09:30:04;;;;;;;5.40;1.63;;;13.50;99.90;;;;;;4962089;28;20111;-84
2023/03/13 09:32:29;;;;;;;7.70;2.50;;;13.60;99.90;;;;;;4975064;28;20916;-81
2023/03/13 09:38:18;;;;;;;3.78;1.67;;;13.70;99.90;;;;;;5002571;28;20088;-83
2023/03/13 09:40:45;;;;;;;4.22;1.70;;;13.70;99.90;;;;;;4977476;28;20040;-83
2023/03/13 09:43:31;;;;;;;5.13;2.22;;;13.60;99.90;;;;;;4954445;28;20030;-83
2023/03/13 09:45:59;;;;;;;4.53;1.50;;;13.70;99.90;;;;;;4953661;28;20026;-82
2023/03/13 09:48:30;;;;;;;4.25;1.42;;;13.70;99.90;;;;;;4958444;28;20053;-82
2023/03/13 09:51:12;;;;;;;5.60;2.25;;;13.60;99.90;;;;;;4973638;28;20520;-83
2023/03/13 09:53:45;;;;;;;4.00;1.70;;;13.60;99.90;;;;;;4977344;28;20038;-83
2023/03/13 09:56:15;;;;;;;4.78;2.92;;;13.60;99.90;;;;;;4976638;28;20046;-83
2023/03/13 09:58:42;;;;;;;3.90;1.42;;;13.60;99.90;;;;;;4974183;28;20046;-83
2023/03/13 10:01:08;;;;;;;2.65;1.10;;;13.60;99.90;;;;;;4970621;28;20031;-82
2023/03/13 10:03:43;;;;;;;5.13;2.05;;;13.30;99.90;;;;;;4956058;28;20478;-83
2023/03/13 10:06:18;;;;;;;3.20;1.02;;;13.50;99.90;;;;;;4971081;28;20124;-82
2023/03/13 10:08:44;;;;;;;6.75;1.83;;;13.50;99.90;;;;;;4959539;28;20045;-82
2023/03/13 10:11:34;;;;;;;3.75;1.77;;;13.40;99.90;;;;;;4960029;28;20478;-81
2023/03/13 10:14:05;;;;;;;2.70;1.80;;;13.50;99.90;;;;;;4981762;28;20041;-81
2023/03/13 10:16:44;;;;;;;7.00;2.40;;;13.50;99.90;;;;;;4974332;28;20041;-82
2023/03/13 10:19:13;;;;;;;8.00;1.85;;;13.50;99.90;;;;;;4954565;28;20089;-81
2023/03/13 10:21:38;;;;;;;2.58;0.98;;;13.50;99.90;;;;;;4959573;28;20042;-81
2023/03/13 10:24:07;;;;;;;6.28;2.10;;;13.60;99.90;;;;;;4968867;28;20088;-82
2023/03/13 10:26:35;;;;;;;5.15;1.40;;;13.70;99.90;;;;;;4987476;28;20405;-82
2023/03/13 10:29:13;;;;;;;5.05;2.00;;;13.80;99.90;;;;;;4959405;28;20069;-82
2023/03/13 10:31:39;;;;;;;6.15;1.45;;;14.00;99.90;;;;;;4956742;28;20038;-82
2023/03/13 10:34:08;;;;;;;2.13;1.20;;;13.90;99.90;;;;;;4959411;28;20048;-82
2023/03/13 10:36:47;;;;;;;7.53;2.65;;;13.90;99.90;;;;;;4968888;28;20041;-82
2023/03/13 10:39:17;;;;;;;4.53;1.33;;;14.00;99.90;;;;;;4971556;28;20029;-82
2023/03/13 10:41:43;;;;;;;8.38;2.53;;;14.20;99.90;;;;;;4950219;28;20494;-81
2023/03/13 10:44:20;;;;;;;7.55;1.80;;;14.40;99.90;;;;;;4960420;28;20034;-81
2023/03/13 10:46:47;;;;;;;2.10;1.48;;;14.60;99.90;;;;;;4958970;28;20033;-81
2023/03/13 10:49:16;;;;;;;1.10;0.80;;;14.80;99.90;;;;;;4959639;28;20030;-82
2023/03/13 10:51:50;;;;;;;1.00;0.93;;;15.10;99.90;;;;;;4977298;28;20351;-82
2023/03/13 10:54:22;;;;;;;3.35;1.17;;;15.10;99.90;;;;;;4977469;28;20113;-82
2023/03/13 10:56:49;;;;;;;3.78;1.30;;;15.30;99.90;;;;;;4966737;28;20552;-81
2023/03/13 10:59:20;;;;;;;2.70;1.27;;;15.30;99.90;;;;;;4958300;28;20042;-82
2023/03/13 11:01:45;;;;;;;2.00;0.93;;;15.20;99.90;;;;;;4950484;28;20038;-82
2023/03/13 11:04:30;;;;;;;4.10;1.55;;;15.40;99.90;;;;;;4952256;28;20145;-81
2023/03/13 11:07:03;;;;;;;1.13;1.02;;;15.40;99.90;;;;;;4971668;28;20030;-81
2023/03/13 11:09:29;;;;;;;8.90;1.27;;;15.30;99.90;;;;;;4979518;28;20033;-81
2023/03/13 11:12:13;;;;;;;1.40;0.98;;;15.30;99.90;;;;;;4954428;28;20033;-81
2023/03/13 11:14:38;;;;;;;3.35;1.20;;;15.50;99.90;;;;;;4967345;28;20041;-80
2023/03/13 11:17:14;;;;;;;5.07;1.20;;;15.30;99.90;;;;;;4951762;28;20421;-81
2023/03/13 11:19:49;;;;;;;4.65;1.08;;;15.40;99.90;;;;;;4976712;28;20156;-81
2023/03/13 11:22:23;;;;;;;4.47;1.30;;;15.60;99.90;;;;;;4953147;28;20038;-81
2023/03/13 11:25:02;;;;;;;2.85;0.88;;;15.60;99.90;;;;;;4983894;28;20036;-81
2023/03/13 11:27:31;;;;;;;0.70;0.70;;;15.80;99.90;;;;;;4974333;28;20064;-82
2023/03/13 11:30:16;;;;;;;3.33;0.60;;;15.90;99.90;;;;;;4973609;28;20030;-81
2023/03/13 11:32:43;;;;;;;2.03;0.98;;;15.70;99.90;;;;;;4991019;28;20479;-81
2023/03/13 11:35:38;;;;;;;2.50;0.82;;;15.80;99.90;;;;;;4961511;28;20038;-81
2023/03/13 11:38:12;;;;;;;2.65;1.00;;;15.80;99.90;;;;;;4966536;28;20034;-80
2023/03/13 11:41:19;;;;;;;2.40;0.98;;;15.90;99.90;;;;;;4960510;28;20084;-80
2023/03/13 11:43:50;;;;;;;2.20;0.70;;;16.00;99.90;;;;;;4954439;28;20030;-81
2023/03/13 11:46:22;;;;;;;3.75;0.70;;;16.10;99.90;;;;;;4983517;28;20399;-81
2023/03/13 11:49:14;;;;;;;4.29;0.64;;;16.20;99.90;;;;;;4522263;28;10002944;-81
2023/03/13 11:52:00;;;;;;;1.92;0.70;;;16.40;99.90;;;;;;4981404;28;21076;-82
2023/03/13 11:54:32;;;;;;;0.65;0.57;;;16.40;99.90;;;;;;4969933;28;20587;-81
2023/03/13 11:57:03;;;;;;;2.25;0.73;;;16.30;99.90;;;;;;4982236;28;20057;-81
2023/03/13 11:59:41;;;;;;;1.50;0.68;;;16.30;99.90;;;;;;4955078;28;20040;-82
2023/03/13 12:02:18;;;;;;;0.40;0.40;;;16.60;99.90;;;;;;4984007;28;20710;-82
2023/03/13 12:04:51;;;;;;;2.20;1.10;;;16.80;99.90;;;;;;4979883;28;20034;-82
2023/03/13 12:07:31;;;;;;;1.85;0.70;;;16.80;99.90;;;;;;4963990;28;20125;-82
2023/03/13 12:10:08;;;;;;;4.80;0.47;;;16.70;99.90;;;;;;4969532;28;20034;-81
2023/03/13 12:12:54;;;;;;;3.42;0.90;;;16.50;99.90;;;;;;4959637;28;20491;-82
2023/03/13 12:15:20;;;;;;;1.17;0.63;;;16.60;99.90;;;;;;4991093;28;20560;-82
2023/03/13 12:17:50;;;;;;;2.05;0.45;;;16.70;99.90;;;;;;4999764;28;20042;-83
2023/03/13 12:20:23;;;;;;;2.17;0.75;;;16.90;99.90;;;;;;4993287;28;20550;-84
2023/03/13 12:23:17;;;;;;;3.08;0.60;;;16.70;99.90;;;;;;4985556;28;20034;-82
2023/03/13 12:25:57;;;;;;;1.17;0.63;;;16.70;99.90;;;;;;4989421;28;20046;-83
2023/03/13 12:28:43;;;;;;;0.85;0.30;;;16.60;99.90;;;;;;4981737;28;20031;-84
2023/03/13 12:31:15;;;;;;;0.60;0.60;;;16.50;99.90;;;;;;4974290;28;20029;-84
2023/03/13 12:34:03;;;;;;;5.38;1.08;;;16.40;99.90;;;;;;4980510;28;20097;-86
2023/03/13 12:36:46;;;;;;;2.80;0.68;;;16.60;99.90;;;;;;5006219;28;20049;-83
2023/03/13 12:39:21;;;;;;;4.90;1.33;;;16.70;99.90;;;;;;4982974;28;20084;-84
2023/03/13 12:41:53;;;;;;;0.45;0.45;;;16.90;99.90;;;;;;4979526;28;20046;-83
2023/03/13 12:44:19;;;;;;;5.95;0.70;;;16.50;99.90;;;;;;4967138;28;20037;-84
2023/03/13 12:47:06;;;;;;;0.98;0.52;;;16.40;99.90;;;;;;4968132;28;21314;-84
2023/03/13 12:49:52;;;;;;;3.15;0.30;;;16.40;99.90;;;;;;4981114;28;20449;-84
2023/03/13 12:52:27;;;;;;;0.43;0.43;;;16.40;99.90;;;;;;4978013;28;20036;-84
2023/03/13 12:54:53;;;;;;;0.60;0.50;;;16.50;99.90;;;;;;4976603;28;20030;-85
2023/03/13 12:57:40;;;;;;;5.88;0.60;;;16.60;99.90;;;;;;4989601;28;20064;-83